Pagrindinis puslapis
METAR-TAF:

METAR-TAF

Oro uostai :

Havana, Kuba

platuma: 22-59N, ilguma: 082-24W, Aukštis: 59 m

Dabartinis oras

Ataskaita buvo paskelbta 30 minutes, ne 07:55 UTC
Vėjas 4 kt iš Rytų
Temperatūra 19°C
Drėgmė 88%
Slėgis 1017 hPa
Matomumas: 9000 m
Išsisklaidę debesys ne aukštis 4000 ft

METAR: MUHA 180755Z 09004KT 9000 SCT040 19/17 Q1017

Laikas: 03:25 (08:25 UTC)

Prognozė

Ataskaita buvo paskelbta 3 valandos ir 25 minutes, ne 05:00 UTC
Prognozė galioja nuo 18 metu 06 UTC su 19 metu 06 UTC
Vėjas 7 kt iš Šiaurės/Šiaurės Rytų
Matomumas: 9000 m
Išsisklaidę debesys ne aukštis 3500 ft
Su prošvaistėmis ne aukštis 15000 ft

TAF: MUHA 180500Z 1806/1906 03007KT 9000 SCT035 BKN150

Orai ataskaitas ir orų prognozės (METAR, TAF).

turimą stotys yra geltonos ir raudonos taškus žemėlapyje.

Perkelti pele per norėdami pamatyti stoties vardą.

Tada spustelėkite, norėdami matyti oro stebėjimo ir prognozės.

Norėdami pakeisti žemėlapį: spustelėkite ant žalios mygtukų su juodo kryžiaus žemyn,; žalią mygtuką su brūkšneliu, jei norite nutolinti; arba žalių rodyklių gretimoms žemėlapius.


METAR-TAF: